sensor_id;sensor_type;location;lat;lon;timestamp;pressure;altitude;pressure_sealevel;temperature;humidity
42621;BME280;28252;53.336;-6.298;2023-05-14T00:00:16;101791.00;;;21.24;100.00
42621;BME280;28252;53.336;-6.298;2023-05-14T00:00:49;101795.44;;;21.25;100.00
42621;BME280;28252;53.336;-6.298;2023-05-14T00:01:22;101792.72;;;21.25;100.00
42621;BME280;28252;53.336;-6.298;2023-05-14T00:01:56;101792.72;;;21.25;100.00
42621;BME280;28252;53.336;-6.298;2023-05-14T00:02:31;101792.72;;;21.25;100.00
42621;BME280;28252;53.336;-6.298;2023-05-14T00:03:02;101791.00;;;21.24;100.00
42621;BME280;28252;53.336;-6.298;2023-05-14T00:03:33;101792.88;;;21.23;100.00
42621;BME280;28252;53.336;-6.298;2023-05-14T00:04:13;101782.88;;;21.24;100.00
42621;BME280;28252;53.336;-6.298;2023-05-14T00:04:52;101798.16;;;21.25;100.00
42621;BME280;28252;53.336;-6.298;2023-05-14T00:05:25;101784.75;;;21.23;100.00
42621;BME280;28252;53.336;-6.298;2023-05-14T00:06:01;101786.59;;;21.23;100.00
42621;BME280;28252;53.336;-6.298;2023-05-14T00:06:32;101787.59;;;21.22;100.00
42621;BME280;28252;53.336;-6.298;2023-05-14T00:07:10;101783.03;;;21.22;100.00
42621;BME280;28252;53.336;-6.298;2023-05-14T00:07:45;101788.44;;;21.22;100.00
42621;BME280;28252;53.336;-6.298;2023-05-14T00:08:21;101782.19;;;21.22;100.00
42621;BME280;28252;53.336;-6.298;2023-05-14T00:08:57;101784.91;;;21.22;100.00
42621;BME280;28252;53.336;-6.298;2023-05-14T00:09:30;101782.34;;;21.20;100.00
42621;BME280;28252;53.336;-6.298;2023-05-14T00:10:05;101785.03;;;21.20;100.00
42621;BME280;28252;53.336;-6.298;2023-05-14T00:10:39;101785.03;;;21.20;100.00
42621;BME280;28252;53.336;-6.298;2023-05-14T00:11:17;101789.63;;;21.20;100.00
42621;BME280;28252;53.336;-6.298;2023-05-14T00:11:50;101778.78;;;21.20;100.00
42621;BME280;28252;53.336;-6.298;2023-05-14T00:12:28;101777.91;;;21.19;100.00
42621;BME280;28252;53.336;-6.298;2023-05-14T00:13:01;101778.94;;;21.18;100.00
42621;BME280;28252;53.336;-6.298;2023-05-14T00:13:37;101782.47;;;21.19;100.00
42621;BME280;28252;53.336;-6.298;2023-05-14T00:14:12;101776.22;;;21.18;100.00
42621;BME280;28252;53.336;-6.298;2023-05-14T00:14:46;101783.47;;;21.18;100.00
42621;BME280;28252;53.336;-6.298;2023-05-14T00:16:40;101768.25;;;21.17;100.00
42621;BME280;28252;53.336;-6.298;2023-05-14T00:17:14;101774.66;;;21.16;100.00
42621;BME280;28252;53.336;-6.298;2023-05-14T00:17:47;101772.78;;;21.16;100.00
42621;BME280;28252;53.336;-6.298;2023-05-14T00:18:18;101780.06;;;21.16;100.00
42621;BME280;28252;53.336;-6.298;2023-05-14T00:18:49;101772.78;;;21.16;100.00
42621;BME280;28252;53.336;-6.298;2023-05-14T00:19:22;101769.38;;;21.14;100.00
42621;BME280;28252;53.336;-6.298;2023-05-14T00:19:59;101771.25;;;21.14;100.00
42621;BME280;28252;53.336;-6.298;2023-05-14T00:20:30;101767.56;;;21.15;100.00
42621;BME280;28252;53.336;-6.298;2023-05-14T00:21:06;101763.97;;;21.14;100.00
42621;BME280;28252;53.336;-6.298;2023-05-14T00:21:39;101763.13;;;21.14;100.00
42621;BME280;28252;53.336;-6.298;2023-05-14T00:22:10;101763.97;;;21.14;100.00
42621;BME280;28252;53.336;-6.298;2023-05-14T00:22:48;101762.28;;;21.13;100.00
42621;BME280;28252;53.336;-6.298;2023-05-14T00:23:26;101763.13;;;21.14;100.00
42621;BME280;28252;53.336;-6.298;2023-05-14T00:23:57;101755.97;;;21.13;100.00
42621;BME280;28252;53.336;-6.298;2023-05-14T00:24:30;101766.81;;;21.13;100.00
42621;BME280;28252;53.336;-6.298;2023-05-14T00:25:07;101755.00;;;21.14;100.00
42621;BME280;28252;53.336;-6.298;2023-05-14T00:32:26;101747.16;;;21.11;100.00
42621;BME280;28252;53.336;-6.298;2023-05-14T00:32:57;101751.75;;;21.10;100.00
42621;BME280;28252;53.336;-6.298;2023-05-14T00:33:28;101750.91;;;21.10;100.00
42621;BME280;28252;53.336;-6.298;2023-05-14T00:34:04;101742.75;;;21.10;100.00
42621;BME280;28252;53.336;-6.298;2023-05-14T00:34:37;101749.03;;;21.10;100.00
42621;BME280;28252;53.336;-6.298;2023-05-14T00:35:13;101747.16;;;21.11;100.00
42621;BME280;28252;53.336;-6.298;2023-05-14T00:35:47;101740.06;;;21.10;100.00
42621;BME280;28252;53.336;-6.298;2023-05-14T00:36:20;101745.47;;;21.10;100.00
42621;BME280;28252;53.336;-6.298;2023-05-14T00:36:56;101740.06;;;21.10;100.00
42621;BME280;28252;53.336;-6.298;2023-05-14T00:37:29;101745.47;;;21.10;100.00
42621;BME280;28252;53.336;-6.298;2023-05-14T00:38:02;101731.06;;;21.09;100.00
42621;BME280;28252;53.336;-6.298;2023-05-14T00:38:34;101741.88;;;21.09;100.00
42621;BME280;28252;53.336;-6.298;2023-05-14T00:39:05;101740.06;;;21.10;100.00
42621;BME280;28252;53.336;-6.298;2023-05-14T00:39:38;101740.06;;;21.10;100.00
42621;BME280;28252;53.336;-6.298;2023-05-14T00:40:09;101741.06;;;21.08;100.00
42621;BME280;28252;53.336;-6.298;2023-05-14T00:40:48;101738.34;;;21.08;100.00
42621;BME280;28252;53.336;-6.298;2023-05-14T00:41:21;101742.03;;;21.07;100.00
42621;BME280;28252;53.336;-6.298;2023-05-14T00:42:00;101740.06;;;21.10;100.00
42621;BME280;28252;53.336;-6.298;2023-05-14T00:42:33;101736.63;;;21.07;100.00
42621;BME280;28252;53.336;-6.298;2023-05-14T00:43:04;101736.63;;;21.07;100.00
42621;BME280;28252;53.336;-6.298;2023-05-14T00:43:35;101732.06;;;21.08;100.00
42621;BME280;28252;53.336;-6.298;2023-05-14T00:44:06;101742.03;;;21.07;100.00
42621;BME280;28252;53.336;-6.298;2023-05-14T00:44:44;101726.66;;;21.08;100.00
42621;BME280;28252;53.336;-6.298;2023-05-14T00:45:15;101735.78;;;21.07;100.00
42621;BME280;28252;53.336;-6.298;2023-05-14T00:45:49;101720.38;;;21.07;100.00
42621;BME280;28252;53.336;-6.298;2023-05-14T00:46:24;101735.78;;;21.07;100.00
42621;BME280;28252;53.336;-6.298;2023-05-14T00:47:00;101736.63;;;21.07;100.00
42621;BME280;28252;53.336;-6.298;2023-05-14T00:47:31;101725.78;;;21.07;100.00
42621;BME280;28252;53.336;-6.298;2023-05-14T00:48:06;101724.94;;;21.07;100.00
42621;BME280;28252;53.336;-6.298;2023-05-14T00:48:40;101717.66;;;21.07;100.00
42621;BME280;28252;53.336;-6.298;2023-05-14T00:49:16;101726.66;;;21.08;100.00
42621;BME280;28252;53.336;-6.298;2023-05-14T00:49:49;101732.06;;;21.08;100.00
42621;BME280;28252;53.336;-6.298;2023-05-14T00:50:23;101724.94;;;21.07;100.00
42621;BME280;28252;53.336;-6.298;2023-05-14T00:50:57;101723.06;;;21.07;100.00
42621;BME280;28252;53.336;-6.298;2023-05-14T00:51:32;101724.94;;;21.07;100.00
42621;BME280;28252;53.336;-6.298;2023-05-14T00:52:08;101720.38;;;21.07;100.00
42621;BME280;28252;53.336;-6.298;2023-05-14T00:52:40;101720.38;;;21.07;100.00
42621;BME280;28252;53.336;-6.298;2023-05-14T00:53:13;101717.66;;;21.07;100.00
42621;BME280;28252;53.336;-6.298;2023-05-14T00:53:47;101721.38;;;21.06;100.00
42621;BME280;28252;53.336;-6.298;2023-05-14T00:54:20;101714.94;;;21.07;100.00
42621;BME280;28252;53.336;-6.298;2023-05-14T00:54:54;101718.69;;;21.06;100.00
42621;BME280;28252;53.336;-6.298;2023-05-14T00:55:28;101711.56;;;21.05;100.00
42621;BME280;28252;53.336;-6.298;2023-05-14T00:56:02;101713.28;;;21.06;100.00
42621;BME280;28252;53.336;-6.298;2023-05-14T00:56:35;101710.72;;;21.05;100.00
42621;BME280;28252;53.336;-6.298;2023-05-14T00:57:12;101705.28;;;21.05;100.00
42621;BME280;28252;53.336;-6.298;2023-05-14T00:57:47;101708.84;;;21.05;100.00
42621;BME280;28252;53.336;-6.298;2023-05-14T00:58:23;101704.44;;;21.04;100.00
42621;BME280;28252;53.336;-6.298;2023-05-14T00:58:57;101712.56;;;21.04;100.00
42621;BME280;28252;53.336;-6.298;2023-05-14T00:59:28;101708.16;;;21.03;100.00
42621;BME280;28252;53.336;-6.298;2023-05-14T01:00:02;101708.16;;;21.03;100.00
42621;BME280;28252;53.336;-6.298;2023-05-14T01:00:36;101705.44;;;21.03;100.00
42621;BME280;28252;53.336;-6.298;2023-05-14T01:01:12;101709.00;;;21.04;100.00
42621;BME280;28252;53.336;-6.298;2023-05-14T01:01:46;101702.72;;;21.03;100.00
42621;BME280;28252;53.336;-6.298;2023-05-14T01:02:17;101706.28;;;21.04;100.00
42621;BME280;28252;53.336;-6.298;2023-05-14T01:02:53;101703.72;;;21.02;100.00
42621;BME280;28252;53.336;-6.298;2023-05-14T01:03:24;101705.44;;;21.03;100.00
42621;BME280;28252;53.336;-6.298;2023-05-14T01:04:00;101697.31;;;21.03;100.00
42621;BME280;28252;53.336;-6.298;2023-05-14T01:04:33;101698.31;;;21.02;100.00
42621;BME280;28252;53.336;-6.298;2023-05-14T01:05:09;101701.00;;;21.02;100.00
42621;BME280;28252;53.336;-6.298;2023-05-14T01:05:51;101703.72;;;21.02;100.00
42621;BME280;28252;53.336;-6.298;2023-05-14T01:08:07;101693.91;;;21.01;100.00
42621;BME280;28252;53.336;-6.298;2023-05-14T01:08:43;101699.19;;;21.03;100.00
42621;BME280;28252;53.336;-6.298;2023-05-14T01:09:28;101703.72;;;21.02;100.00
42621;BME280;28252;53.336;-6.298;2023-05-14T01:10:05;101701.00;;;21.02;100.00
42621;BME280;28252;53.336;-6.298;2023-05-14T01:10:55;101697.59;;;21.00;100.00
42621;BME280;28252;53.336;-6.298;2023-05-14T01:11:51;101699.31;;;21.01;100.00
42621;BME280;28252;53.336;-6.298;2023-05-14T01:13:03;101691.34;;;21.00;100.00
42621;BME280;28252;53.336;-6.298;2023-05-14T01:15:05;101689.63;;;20.99;100.00
42621;BME280;28252;53.336;-6.298;2023-05-14T01:15:40;101698.78;;;20.98;100.00
42621;BME280;28252;53.336;-6.298;2023-05-14T01:16:15;101698.78;;;20.98;100.00
42621;BME280;28252;53.336;-6.298;2023-05-14T01:16:49;101697.91;;;20.97;100.00
42621;BME280;28252;53.336;-6.298;2023-05-14T01:17:21;101690.81;;;20.96;100.00
42621;BME280;28252;53.336;-6.298;2023-05-14T01:17:58;101697.06;;;20.97;100.00
42621;BME280;28252;53.336;-6.298;2023-05-14T01:18:31;101696.22;;;20.96;100.00
42621;BME280;28252;53.336;-6.298;2023-05-14T01:19:09;101689.78;;;20.97;100.00
42621;BME280;28252;53.336;-6.298;2023-05-14T01:19:48;101690.81;;;20.96;100.00
42621;BME280;28252;53.336;-6.298;2023-05-14T01:20:25;101685.38;;;20.96;100.00
42621;BME280;28252;53.336;-6.298;2023-05-14T01:20:58;101689.09;;;20.95;100.00
42621;BME280;28252;53.336;-6.298;2023-05-14T01:21:33;101686.22;;;20.97;100.00
42621;BME280;28252;53.336;-6.298;2023-05-14T01:22:10;101687.22;;;20.96;100.00
42621;BME280;28252;53.336;-6.298;2023-05-14T01:22:45;101687.22;;;20.96;100.00
42621;BME280;28252;53.336;-6.298;2023-05-14T01:23:17;101685.38;;;20.96;100.00
42621;BME280;28252;53.336;-6.298;2023-05-14T01:23:52;101688.09;;;20.96;100.00
42621;BME280;28252;53.336;-6.298;2023-05-14T01:24:23;101685.38;;;20.96;100.00
42621;BME280;28252;53.336;-6.298;2023-05-14T01:24:57;101677.41;;;20.95;100.00
42621;BME280;28252;53.336;-6.298;2023-05-14T01:25:30;101683.66;;;20.95;100.00
42621;BME280;28252;53.336;-6.298;2023-05-14T01:26:04;101681.94;;;20.94;100.00
42621;BME280;28252;53.336;-6.298;2023-05-14T01:26:37;101683.81;;;20.94;100.00
42621;BME280;28252;53.336;-6.298;2023-05-14T01:27:10;101685.53;;;20.95;100.00
42621;BME280;28252;53.336;-6.298;2023-05-14T01:28:30;101683.81;;;20.94;100.00
42621;BME280;28252;53.336;-6.298;2023-05-14T01:28:43;101680.25;;;20.93;100.00
42621;BME280;28252;53.336;-6.298;2023-05-14T01:29:18;101679.44;;;20.93;100.00
42621;BME280;28252;53.336;-6.298;2023-05-14T01:30:33;101676.72;;;20.93;100.00
42621;BME280;28252;53.336;-6.298;2023-05-14T01:31:07;101680.25;;;20.93;100.00
42621;BME280;28252;53.336;-6.298;2023-05-14T01:31:42;101679.44;;;20.93;100.00
42621;BME280;28252;53.336;-6.298;2023-05-14T01:32:18;101675.69;;;20.94;100.00
42621;BME280;28252;53.336;-6.298;2023-05-14T01:32:52;101674.84;;;20.93;100.00
42621;BME280;28252;53.336;-6.298;2023-05-14T01:33:26;101668.59;;;20.93;100.00
42621;BME280;28252;53.336;-6.298;2023-05-14T01:33:59;101674.00;;;20.93;100.00
42621;BME280;28252;53.336;-6.298;2023-05-14T01:34:35;101671.31;;;20.93;100.00
42621;BME280;28252;53.336;-6.298;2023-05-14T01:35:13;101673.13;;;20.92;100.00
42621;BME280;28252;53.336;-6.298;2023-05-14T01:35:47;101667.72;;;20.92;100.00
42621;BME280;28252;53.336;-6.298;2023-05-14T01:36:21;101678.56;;;20.92;100.00
42621;BME280;28252;53.336;-6.298;2023-05-14T01:36:55;101673.13;;;20.92;100.00
42621;BME280;28252;53.336;-6.298;2023-05-14T01:37:29;101669.59;;;20.92;100.00
42621;BME280;28252;53.336;-6.298;2023-05-14T01:38:06;101673.13;;;20.92;100.00
42621;BME280;28252;53.336;-6.298;2023-05-14T01:38:43;101667.88;;;20.90;100.00
42621;BME280;28252;53.336;-6.298;2023-05-14T01:39:18;101670.56;;;20.90;100.00
42621;BME280;28252;53.336;-6.298;2023-05-14T01:39:54;101669.72;;;20.90;100.00
42621;BME280;28252;53.336;-6.298;2023-05-14T01:40:26;101673.28;;;20.90;100.00
42621;BME280;28252;53.336;-6.298;2023-05-14T01:41:02;101669.72;;;20.90;100.00
42621;BME280;28252;53.336;-6.298;2023-05-14T01:41:39;101672.44;;;20.90;100.00
42621;BME280;28252;53.336;-6.298;2023-05-14T01:42:14;101672.44;;;20.90;100.00
42621;BME280;28252;53.336;-6.298;2023-05-14T01:42:50;101672.44;;;20.90;100.00
42621;BME280;28252;53.336;-6.298;2023-05-14T01:43:26;101664.31;;;20.90;100.00
42621;BME280;28252;53.336;-6.298;2023-05-14T01:43:57;101675.16;;;20.90;100.00
42621;BME280;28252;53.336;-6.298;2023-05-14T01:44:36;101665.31;;;20.89;100.00
42621;BME280;28252;53.336;-6.298;2023-05-14T01:45:10;101663.47;;;20.89;100.00
42621;BME280;28252;53.336;-6.298;2023-05-14T01:45:41;101662.59;;;20.89;100.00
42621;BME280;28252;53.336;-6.298;2023-05-14T01:46:20;101662.59;;;20.89;100.00
42621;BME280;28252;53.336;-6.298;2023-05-14T01:46:54;101668.00;;;20.89;100.00
42621;BME280;28252;53.336;-6.298;2023-05-14T01:47:27;101665.31;;;20.89;100.00
42621;BME280;28252;53.336;-6.298;2023-05-14T01:47:58;101666.34;;;20.88;100.00
42621;BME280;28252;53.336;-6.298;2023-05-14T01:48:33;101671.75;;;20.88;100.00
42621;BME280;28252;53.336;-6.298;2023-05-14T01:49:10;101666.34;;;20.88;100.00
42621;BME280;28252;53.336;-6.298;2023-05-14T01:49:41;101663.63;;;20.88;100.00
42621;BME280;28252;53.336;-6.298;2023-05-14T01:50:15;101660.06;;;20.87;100.00
42621;BME280;28252;53.336;-6.298;2023-05-14T01:50:48;101667.31;;;20.87;100.00
42621;BME280;28252;53.336;-6.298;2023-05-14T01:51:19;101666.34;;;20.88;100.00
42621;BME280;28252;53.336;-6.298;2023-05-14T01:51:52;101659.19;;;20.87;100.00
42621;BME280;28252;53.336;-6.298;2023-05-14T01:52:26;101659.19;;;20.87;100.00
42621;BME280;28252;53.336;-6.298;2023-05-14T01:52:57;101665.50;;;20.87;100.00
42621;BME280;28252;53.336;-6.298;2023-05-14T01:53:31;101665.50;;;20.87;100.00
42621;BME280;28252;53.336;-6.298;2023-05-14T01:54:07;101660.22;;;20.86;100.00
42621;BME280;28252;53.336;-6.298;2023-05-14T01:54:38;101667.31;;;20.87;100.00
42621;BME280;28252;53.336;-6.298;2023-05-14T01:55:13;101663.78;;;20.86;100.00
42621;BME280;28252;53.336;-6.298;2023-05-14T01:55:50;101666.47;;;20.86;100.00
42621;BME280;28252;53.336;-6.298;2023-05-14T01:57:54;101662.06;;;20.85;100.00
42621;BME280;28252;53.336;-6.298;2023-05-14T01:58:29;101669.34;;;20.85;100.00
42621;BME280;28252;53.336;-6.298;2023-05-14T01:59:02;101661.22;;;20.85;100.00
42621;BME280;28252;53.336;-6.298;2023-05-14T01:59:36;101664.91;;;20.84;100.00
42621;BME280;28252;53.336;-6.298;2023-05-14T02:00:10;101661.22;;;20.85;100.00
42621;BME280;28252;53.336;-6.298;2023-05-14T02:00:47;101663.06;;;20.84;100.00
42621;BME280;28252;53.336;-6.298;2023-05-14T02:01:20;101666.78;;;20.83;100.00
42621;BME280;28252;53.336;-6.298;2023-05-14T02:01:53;101657.81;;;20.83;100.00
42621;BME280;28252;53.336;-6.298;2023-05-14T02:02:29;101664.06;;;20.83;100.00
42621;BME280;28252;53.336;-6.298;2023-05-14T02:03:02;101663.22;;;20.83;100.00
42621;BME280;28252;53.336;-6.298;2023-05-14T02:03:33;101665.94;;;20.83;100.00
42621;BME280;28252;53.336;-6.298;2023-05-14T02:04:06;101657.81;;;20.83;100.00
42621;BME280;28252;53.336;-6.298;2023-05-14T02:04:41;101665.94;;;20.83;100.00
42621;BME280;28252;53.336;-6.298;2023-05-14T02:05:15;101657.81;;;20.83;100.00
42621;BME280;28252;53.336;-6.298;2023-05-14T02:05:51;101658.81;;;20.82;100.00
42621;BME280;28252;53.336;-6.298;2023-05-14T02:06:22;101661.50;;;20.82;100.00
42621;BME280;28252;53.336;-6.298;2023-05-14T02:06:58;101655.25;;;20.81;100.00
42621;BME280;28252;53.336;-6.298;2023-05-14T02:07:29;101657.97;;;20.81;100.00
42621;BME280;28252;53.336;-6.298;2023-05-14T02:08:02;101656.09;;;20.82;100.00
42621;BME280;28252;53.336;-6.298;2023-05-14T02:08:33;101656.09;;;20.82;100.00
42621;BME280;28252;53.336;-6.298;2023-05-14T02:09:04;101656.25;;;20.80;100.00
42621;BME280;28252;53.336;-6.298;2023-05-14T02:09:35;101661.50;;;20.82;100.00
42621;BME280;28252;53.336;-6.298;2023-05-14T02:10:06;101652.53;;;20.81;100.00
42621;BME280;28252;53.336;-6.298;2023-05-14T02:10:38;101656.25;;;20.80;100.00
42621;BME280;28252;53.336;-6.298;2023-05-14T02:11:14;101657.13;;;20.81;100.00
42621;BME280;28252;53.336;-6.298;2023-05-14T02:11:49;101654.41;;;20.81;100.00
42621;BME280;28252;53.336;-6.298;2023-05-14T02:12:22;101654.41;;;20.81;100.00
42621;BME280;28252;53.336;-6.298;2023-05-14T02:12:58;101659.81;;;20.81;100.00
42621;BME280;28252;53.336;-6.298;2023-05-14T02:13:31;101653.38;;;20.82;100.00
42621;BME280;28252;53.336;-6.298;2023-05-14T02:14:04;101650.81;;;20.80;100.00
42621;BME280;28252;53.336;-6.298;2023-05-14T02:14:39;101660.66;;;20.81;100.00
42621;BME280;28252;53.336;-6.298;2023-05-14T02:15:12;101650.81;;;20.80;100.00
42621;BME280;28252;53.336;-6.298;2023-05-14T02:15:48;101658.94;;;20.80;100.00
42621;BME280;28252;53.336;-6.298;2023-05-14T02:16:30;101654.41;;;20.81;100.00
42621;BME280;28252;53.336;-6.298;2023-05-14T02:17:09;101654.41;;;20.81;100.00
42621;BME280;28252;53.336;-6.298;2023-05-14T02:17:42;101652.69;;;20.80;100.00
42621;BME280;28252;53.336;-6.298;2023-05-14T02:18:15;101654.41;;;20.81;100.00
42621;BME280;28252;53.336;-6.298;2023-05-14T02:18:47;101649.97;;;20.80;100.00
42621;BME280;28252;53.336;-6.298;2023-05-14T02:19:23;101644.56;;;20.80;100.00
42621;BME280;28252;53.336;-6.298;2023-05-14T02:19:54;101647.28;;;20.80;100.00
42621;BME280;28252;53.336;-6.298;2023-05-14T02:20:28;101652.69;;;20.80;100.00
42621;BME280;28252;53.336;-6.298;2023-05-14T02:21:01;101650.97;;;20.79;100.00
42621;BME280;28252;53.336;-6.298;2023-05-14T02:21:32;101650.97;;;20.79;100.00
42621;BME280;28252;53.336;-6.298;2023-05-14T02:22:09;101649.13;;;20.79;100.00
42621;BME280;28252;53.336;-6.298;2023-05-14T02:22:45;101645.56;;;20.79;100.00
42621;BME280;28252;53.336;-6.298;2023-05-14T02:23:22;101644.72;;;20.78;100.00
42621;BME280;28252;53.336;-6.298;2023-05-14T02:23:57;101644.72;;;20.78;100.00
42621;BME280;28252;53.336;-6.298;2023-05-14T02:24:31;101649.28;;;20.78;100.00
42621;BME280;28252;53.336;-6.298;2023-05-14T02:25:04;101650.97;;;20.79;100.00
42621;BME280;28252;53.336;-6.298;2023-05-14T02:25:43;101647.56;;;20.77;100.00
42621;BME280;28252;53.336;-6.298;2023-05-14T02:26:16;101648.44;;;20.77;100.00
42621;BME280;28252;53.336;-6.298;2023-05-14T02:26:52;101648.44;;;20.77;100.00
42621;BME280;28252;53.336;-6.298;2023-05-14T02:27:27;101653.84;;;20.77;100.00
42621;BME280;28252;53.336;-6.298;2023-05-14T02:27:58;101649.28;;;20.78;100.00
42621;BME280;28252;53.336;-6.298;2023-05-14T02:28:33;101651.16;;;20.77;100.00
42621;BME280;28252;53.336;-6.298;2023-05-14T02:29:07;101643.19;;;20.76;100.00
42621;BME280;28252;53.336;-6.298;2023-05-14T02:29:40;101650.28;;;20.77;100.00
42621;BME280;28252;53.336;-6.298;2023-05-14T02:30:11;101642.16;;;20.77;100.00
42621;BME280;28252;53.336;-6.298;2023-05-14T02:30:45;101647.56;;;20.77;100.00
42621;BME280;28252;53.336;-6.298;2023-05-14T02:31:21;101647.56;;;20.77;100.00
42621;BME280;28252;53.336;-6.298;2023-05-14T02:31:56;101646.72;;;20.76;100.00
42621;BME280;28252;53.336;-6.298;2023-05-14T02:32:31;101647.56;;;20.77;100.00
42621;BME280;28252;53.336;-6.298;2023-05-14T02:33:10;101647.56;;;20.77;100.00
42621;BME280;28252;53.336;-6.298;2023-05-14T02:33:43;101641.31;;;20.76;100.00
42621;BME280;28252;53.336;-6.298;2023-05-14T02:34:16;101642.16;;;20.77;100.00
42621;BME280;28252;53.336;-6.298;2023-05-14T02:34:52;101642.16;;;20.77;100.00
42621;BME280;28252;53.336;-6.298;2023-05-14T02:35:27;101643.19;;;20.76;100.00
42621;BME280;28252;53.336;-6.298;2023-05-14T02:36:00;101636.03;;;20.75;100.00
42621;BME280;28252;53.336;-6.298;2023-05-14T02:36:32;101640.47;;;20.76;100.00
42621;BME280;28252;53.336;-6.298;2023-05-14T02:37:03;101641.47;;;20.75;100.00
42621;BME280;28252;53.336;-6.298;2023-05-14T02:37:36;101641.47;;;20.75;100.00
42621;BME280;28252;53.336;-6.298;2023-05-14T02:38:07;101640.63;;;20.74;100.00
42621;BME280;28252;53.336;-6.298;2023-05-14T02:38:43;101643.31;;;20.74;100.00
42621;BME280;28252;53.336;-6.298;2023-05-14T02:39:14;101639.75;;;20.74;100.00
42621;BME280;28252;53.336;-6.298;2023-05-14T02:39:47;101646.88;;;20.75;100.00
42621;BME280;28252;53.336;-6.298;2023-05-14T02:40:24;101642.44;;;20.74;100.00
42621;BME280;28252;53.336;-6.298;2023-05-14T02:40:55;101637.03;;;20.74;100.00
42621;BME280;28252;53.336;-6.298;2023-05-14T02:41:31;101639.75;;;20.74;100.00
42621;BME280;28252;53.336;-6.298;2023-05-14T02:42:07;101636.19;;;20.73;100.00
42621;BME280;28252;53.336;-6.298;2023-05-14T02:42:41;101639.75;;;20.74;100.00
42621;BME280;28252;53.336;-6.298;2023-05-14T02:43:17;101640.75;;;20.73;100.00
42621;BME280;28252;53.336;-6.298;2023-05-14T02:43:52;101639.88;;;20.72;100.00
42621;BME280;28252;53.336;-6.298;2023-05-14T02:44:26;101643.47;;;20.73;100.00
42621;BME280;28252;53.336;-6.298;2023-05-14T02:45:01;101637.19;;;20.72;100.00
42621;BME280;28252;53.336;-6.298;2023-05-14T02:45:34;101641.75;;;20.71;100.00
42621;BME280;28252;53.336;-6.298;2023-05-14T02:46:08;101633.63;;;20.71;100.00
42621;BME280;28252;53.336;-6.298;2023-05-14T02:46:43;101633.63;;;20.71;100.00
42621;BME280;28252;53.336;-6.298;2023-05-14T02:47:14;101641.75;;;20.71;100.00
42621;BME280;28252;53.336;-6.298;2023-05-14T02:47:45;101631.78;;;20.72;100.00
42621;BME280;28252;53.336;-6.298;2023-05-14T02:48:21;101632.78;;;20.71;100.00
42621;BME280;28252;53.336;-6.298;2023-05-14T02:48:52;101631.78;;;20.72;100.00
42621;BME280;28252;53.336;-6.298;2023-05-14T02:49:31;101639.06;;;20.71;100.00
42621;BME280;28252;53.336;-6.298;2023-05-14T02:50:07;101636.34;;;20.71;100.00
42621;BME280;28252;53.336;-6.298;2023-05-14T02:50:42;101630.94;;;20.71;100.00
42621;BME280;28252;53.336;-6.298;2023-05-14T02:51:13;101637.38;;;20.70;100.00
42621;BME280;28252;53.336;-6.298;2023-05-14T02:51:44;101635.50;;;20.71;100.00
42621;BME280;28252;53.336;-6.298;2023-05-14T02:52:20;101634.66;;;20.70;100.00
42621;BME280;28252;53.336;-6.298;2023-05-14T02:52:53;101636.34;;;20.71;100.00
42621;BME280;28252;53.336;-6.298;2023-05-14T02:53:25;101636.34;;;20.71;100.00
42621;BME280;28252;53.336;-6.298;2023-05-14T02:53:58;101637.38;;;20.70;100.00
42621;BME280;28252;53.336;-6.298;2023-05-14T02:54:31;101632.78;;;20.71;100.00
42621;BME280;28252;53.336;-6.298;2023-05-14T02:55:07;101635.66;;;20.69;100.00
42621;BME280;28252;53.336;-6.298;2023-05-14T02:55:40;101629.25;;;20.70;100.00
42621;BME280;28252;53.336;-6.298;2023-05-14T02:56:13;101630.22;;;20.69;100.00
42621;BME280;28252;53.336;-6.298;2023-05-14T02:56:49;101630.22;;;20.69;100.00
42621;BME280;28252;53.336;-6.298;2023-05-14T02:57:22;101633.94;;;20.68;100.00
42621;BME280;28252;53.336;-6.298;2023-05-14T02:57:56;101639.34;;;20.68;100.00
42621;BME280;28252;53.336;-6.298;2023-05-14T02:58:29;101633.94;;;20.68;100.00
42621;BME280;28252;53.336;-6.298;2023-05-14T03:03:08;101632.25;;;20.67;100.00
42621;BME280;28252;53.336;-6.298;2023-05-14T03:03:43;101635.94;;;20.66;100.00
42621;BME280;28252;53.336;-6.298;2023-05-14T03:04:15;101635.94;;;20.66;100.00
42621;BME280;28252;53.336;-6.298;2023-05-14T03:04:48;101628.84;;;20.65;100.00
42621;BME280;28252;53.336;-6.298;2023-05-14T03:05:22;101635.94;;;20.66;100.00
42621;BME280;28252;53.336;-6.298;2023-05-14T03:05:53;101634.25;;;20.65;100.00
42621;BME280;28252;53.336;-6.298;2023-05-14T03:06:28;101634.25;;;20.65;100.00
42621;BME280;28252;53.336;-6.298;2023-05-14T03:07:03;101628.84;;;20.65;100.00
42621;BME280;28252;53.336;-6.298;2023-05-14T03:07:40;101627.13;;;20.64;100.00
42621;BME280;28252;53.336;-6.298;2023-05-14T03:08:13;101628.84;;;20.65;100.00
42621;BME280;28252;53.336;-6.298;2023-05-14T03:08:46;101631.56;;;20.65;100.00
42621;BME280;28252;53.336;-6.298;2023-05-14T03:09:17;101634.25;;;20.65;100.00
42621;BME280;28252;53.336;-6.298;2023-05-14T03:09:58;101628.84;;;20.65;100.00
42621;BME280;28252;53.336;-6.298;2023-05-14T03:10:36;101628.84;;;20.65;100.00
42621;BME280;28252;53.336;-6.298;2023-05-14T03:11:11;101630.69;;;20.65;100.00
42621;BME280;28252;53.336;-6.298;2023-05-14T03:11:45;101633.38;;;20.65;100.00
42621;BME280;28252;53.336;-6.298;2023-05-14T03:12:21;101628.84;;;20.65;100.00
42621;BME280;28252;53.336;-6.298;2023-05-14T03:12:54;101633.38;;;20.65;100.00
42621;BME280;28252;53.336;-6.298;2023-05-14T03:13:30;101628.84;;;20.65;100.00